sensor_id;sensor_type;location;lat;lon;timestamp;P1;durP1;ratioP1;P2;durP2;ratioP2
22826;SDS011;11580;52.562;13.418;2022-10-13T00:01:05;5.03;;;4.53;;
22826;SDS011;11580;52.562;13.418;2022-10-13T00:03:35;5.20;;;4.77;;
22826;SDS011;11580;52.562;13.418;2022-10-13T00:06:04;5.73;;;5.23;;
22826;SDS011;11580;52.562;13.418;2022-10-13T00:08:33;5.47;;;4.80;;
22826;SDS011;11580;52.562;13.418;2022-10-13T00:11:09;5.70;;;5.20;;
22826;SDS011;11580;52.562;13.418;2022-10-13T00:13:39;6.93;;;4.60;;
22826;SDS011;11580;52.562;13.418;2022-10-13T00:16:07;5.73;;;5.13;;
22826;SDS011;11580;52.562;13.418;2022-10-13T00:18:36;5.70;;;4.53;;
22826;SDS011;11580;52.562;13.418;2022-10-13T00:21:05;5.20;;;4.60;;
22826;SDS011;11580;52.562;13.418;2022-10-13T00:23:35;6.20;;;5.03;;
22826;SDS011;11580;52.562;13.418;2022-10-13T00:26:03;6.17;;;5.63;;
22826;SDS011;11580;52.562;13.418;2022-10-13T00:28:35;5.50;;;5.00;;
22826;SDS011;11580;52.562;13.418;2022-10-13T00:31:02;8.83;;;5.73;;
22826;SDS011;11580;52.562;13.418;2022-10-13T00:33:39;6.67;;;5.83;;
22826;SDS011;11580;52.562;13.418;2022-10-13T00:36:06;6.27;;;4.90;;
22826;SDS011;11580;52.562;13.418;2022-10-13T00:38:33;5.47;;;4.90;;
22826;SDS011;11580;52.562;13.418;2022-10-13T00:41:01;6.47;;;4.20;;
22826;SDS011;11580;52.562;13.418;2022-10-13T00:46:25;6.10;;;5.30;;
22826;SDS011;11580;52.562;13.418;2022-10-13T00:48:55;5.53;;;5.00;;
22826;SDS011;11580;52.562;13.418;2022-10-13T00:51:26;5.77;;;4.60;;
22826;SDS011;11580;52.562;13.418;2022-10-13T00:53:58;7.13;;;5.90;;
22826;SDS011;11580;52.562;13.418;2022-10-13T00:56:28;6.10;;;5.50;;
22826;SDS011;11580;52.562;13.418;2022-10-13T00:58:57;6.03;;;5.50;;
22826;SDS011;11580;52.562;13.418;2022-10-13T01:01:26;6.30;;;5.63;;
22826;SDS011;11580;52.562;13.418;2022-10-13T01:03:54;5.10;;;4.60;;
22826;SDS011;11580;52.562;13.418;2022-10-13T01:06:21;7.37;;;5.07;;
22826;SDS011;11580;52.562;13.418;2022-10-13T01:08:49;5.63;;;5.10;;
22826;SDS011;11580;52.562;13.418;2022-10-13T01:11:19;6.23;;;5.70;;
22826;SDS011;11580;52.562;13.418;2022-10-13T01:14:19;7.27;;;5.90;;
22826;SDS011;11580;52.562;13.418;2022-10-13T01:16:57;6.13;;;4.87;;
22826;SDS011;11580;52.562;13.418;2022-10-13T01:23:05;5.17;;;4.70;;
22826;SDS011;11580;52.562;13.418;2022-10-13T01:26:08;5.77;;;4.87;;
22826;SDS011;11580;52.562;13.418;2022-10-13T01:29:04;6.07;;;5.37;;
22826;SDS011;11580;52.562;13.418;2022-10-13T01:31:51;6.00;;;5.20;;
22826;SDS011;11580;52.562;13.418;2022-10-13T01:34:25;5.97;;;4.87;;
22826;SDS011;11580;52.562;13.418;2022-10-13T01:37:01;7.60;;;5.53;;
22826;SDS011;11580;52.562;13.418;2022-10-13T01:39:37;6.20;;;4.60;;
22826;SDS011;11580;52.562;13.418;2022-10-13T01:42:11;6.63;;;6.03;;
22826;SDS011;11580;52.562;13.418;2022-10-13T01:44:44;6.77;;;5.40;;
22826;SDS011;11580;52.562;13.418;2022-10-13T01:47:19;6.87;;;5.80;;
22826;SDS011;11580;52.562;13.418;2022-10-13T01:49:49;7.03;;;6.30;;
22826;SDS011;11580;52.562;13.418;2022-10-13T01:52:19;5.87;;;5.37;;
22826;SDS011;11580;52.562;13.418;2022-10-13T01:54:52;5.20;;;4.27;;
22826;SDS011;11580;52.562;13.418;2022-10-13T01:57:28;6.37;;;5.77;;
22826;SDS011;11580;52.562;13.418;2022-10-13T01:59:59;9.30;;;5.50;;
22826;SDS011;11580;52.562;13.418;2022-10-13T02:02:40;7.27;;;5.10;;
22826;SDS011;11580;52.562;13.418;2022-10-13T02:05:21;6.23;;;4.60;;
22826;SDS011;11580;52.562;13.418;2022-10-13T02:07:59;7.20;;;5.60;;
22826;SDS011;11580;52.562;13.418;2022-10-13T02:10:33;7.03;;;5.70;;
22826;SDS011;11580;52.562;13.418;2022-10-13T02:13:10;6.20;;;5.60;;
22826;SDS011;11580;52.562;13.418;2022-10-13T02:15:42;7.07;;;5.23;;
22826;SDS011;11580;52.562;13.418;2022-10-13T02:18:16;6.20;;;5.67;;
22826;SDS011;11580;52.562;13.418;2022-10-13T02:20:49;5.90;;;5.40;;
22826;SDS011;11580;52.562;13.418;2022-10-13T02:23:17;6.17;;;4.80;;
22826;SDS011;11580;52.562;13.418;2022-10-13T02:25:44;6.30;;;5.80;;
22826;SDS011;11580;52.562;13.418;2022-10-13T02:28:14;5.80;;;5.23;;
22826;SDS011;11580;52.562;13.418;2022-10-13T02:30:43;5.80;;;5.20;;
22826;SDS011;11580;52.562;13.418;2022-10-13T02:33:12;6.20;;;5.60;;
22826;SDS011;11580;52.562;13.418;2022-10-13T02:35:41;6.30;;;5.80;;
22826;SDS011;11580;52.562;13.418;2022-10-13T02:38:09;5.73;;;5.23;;
22826;SDS011;11580;52.562;13.418;2022-10-13T02:40:36;6.23;;;5.80;;
22826;SDS011;11580;52.562;13.418;2022-10-13T02:43:04;7.13;;;5.70;;
22826;SDS011;11580;52.562;13.418;2022-10-13T02:45:31;8.67;;;6.37;;
22826;SDS011;11580;52.562;13.418;2022-10-13T02:47:58;9.97;;;6.30;;
22826;SDS011;11580;52.562;13.418;2022-10-13T02:50:25;9.57;;;6.07;;
22826;SDS011;11580;52.562;13.418;2022-10-13T02:52:56;8.50;;;6.20;;
22826;SDS011;11580;52.562;13.418;2022-10-13T02:55:23;8.30;;;5.83;;
22826;SDS011;11580;52.562;13.418;2022-10-13T02:57:54;6.97;;;6.30;;
22826;SDS011;11580;52.562;13.418;2022-10-13T03:00:22;6.50;;;5.90;;
22826;SDS011;11580;52.562;13.418;2022-10-13T03:02:50;6.93;;;6.23;;
22826;SDS011;11580;52.562;13.418;2022-10-13T03:05:18;8.50;;;6.90;;
22826;SDS011;11580;52.562;13.418;2022-10-13T03:07:45;7.37;;;6.80;;
22826;SDS011;11580;52.562;13.418;2022-10-13T03:10:15;7.60;;;6.80;;
22826;SDS011;11580;52.562;13.418;2022-10-13T03:12:42;6.63;;;6.00;;
22826;SDS011;11580;52.562;13.418;2022-10-13T03:15:10;6.33;;;5.73;;
22826;SDS011;11580;52.562;13.418;2022-10-13T03:17:37;6.67;;;5.53;;
22826;SDS011;11580;52.562;13.418;2022-10-13T03:20:05;6.50;;;5.80;;
22826;SDS011;11580;52.562;13.418;2022-10-13T03:22:34;5.97;;;5.37;;
22826;SDS011;11580;52.562;13.418;2022-10-13T03:25:01;6.20;;;5.40;;
22826;SDS011;11580;52.562;13.418;2022-10-13T03:27:32;7.50;;;6.70;;
22826;SDS011;11580;52.562;13.418;2022-10-13T03:30:00;6.93;;;5.60;;
22826;SDS011;11580;52.562;13.418;2022-10-13T03:32:28;6.70;;;5.83;;
22826;SDS011;11580;52.562;13.418;2022-10-13T03:34:56;7.00;;;5.73;;
22826;SDS011;11580;52.562;13.418;2022-10-13T03:37:23;5.97;;;5.47;;
22826;SDS011;11580;52.562;13.418;2022-10-13T03:39:50;7.57;;;5.93;;
22826;SDS011;11580;52.562;13.418;2022-10-13T03:42:17;7.90;;;6.03;;
22826;SDS011;11580;52.562;13.418;2022-10-13T03:44:48;5.90;;;5.33;;
22826;SDS011;11580;52.562;13.418;2022-10-13T03:47:15;8.53;;;5.83;;
22826;SDS011;11580;52.562;13.418;2022-10-13T03:49:42;7.40;;;6.30;;
22826;SDS011;11580;52.562;13.418;2022-10-13T03:52:09;6.40;;;5.80;;
22826;SDS011;11580;52.562;13.418;2022-10-13T03:54:36;6.07;;;5.47;;
22826;SDS011;11580;52.562;13.418;2022-10-13T03:57:04;6.70;;;6.10;;
22826;SDS011;11580;52.562;13.418;2022-10-13T03:59:31;8.23;;;7.43;;
22826;SDS011;11580;52.562;13.418;2022-10-13T04:02:00;7.07;;;6.20;;
22826;SDS011;11580;52.562;13.418;2022-10-13T04:04:27;5.43;;;4.70;;
22826;SDS011;11580;52.562;13.418;2022-10-13T04:06:54;7.00;;;6.30;;
22826;SDS011;11580;52.562;13.418;2022-10-13T04:09:21;6.70;;;5.73;;
22826;SDS011;11580;52.562;13.418;2022-10-13T04:11:49;6.87;;;6.17;;
22826;SDS011;11580;52.562;13.418;2022-10-13T04:14:16;8.80;;;6.30;;
22826;SDS011;11580;52.562;13.418;2022-10-13T04:16:44;7.20;;;6.30;;
22826;SDS011;11580;52.562;13.418;2022-10-13T04:19:13;9.00;;;6.87;;
22826;SDS011;11580;52.562;13.418;2022-10-13T04:21:42;8.40;;;5.77;;
22826;SDS011;11580;52.562;13.418;2022-10-13T04:24:10;8.70;;;5.87;;
22826;SDS011;11580;52.562;13.418;2022-10-13T04:26:39;7.33;;;6.63;;
22826;SDS011;11580;52.562;13.418;2022-10-13T04:29:07;6.63;;;5.90;;
22826;SDS011;11580;52.562;13.418;2022-10-13T04:31:37;7.23;;;6.63;;
22826;SDS011;11580;52.562;13.418;2022-10-13T04:34:06;6.80;;;6.20;;
22826;SDS011;11580;52.562;13.418;2022-10-13T04:36:35;7.10;;;6.40;;
22826;SDS011;11580;52.562;13.418;2022-10-13T04:39:02;6.77;;;6.17;;
22826;SDS011;11580;52.562;13.418;2022-10-13T04:41:31;8.63;;;6.27;;
22826;SDS011;11580;52.562;13.418;2022-10-13T04:43:59;7.23;;;6.53;;
22826;SDS011;11580;52.562;13.418;2022-10-13T04:46:26;6.83;;;6.20;;
22826;SDS011;11580;52.562;13.418;2022-10-13T04:48:55;7.00;;;6.30;;
22826;SDS011;11580;52.562;13.418;2022-10-13T04:51:27;9.30;;;6.10;;
22826;SDS011;11580;52.562;13.418;2022-10-13T04:53:56;6.57;;;5.97;;
22826;SDS011;11580;52.562;13.418;2022-10-13T04:56:25;7.27;;;6.67;;
22826;SDS011;11580;52.562;13.418;2022-10-13T04:58:57;7.00;;;6.03;;
22826;SDS011;11580;52.562;13.418;2022-10-13T05:01:25;8.30;;;6.97;;
22826;SDS011;11580;52.562;13.418;2022-10-13T05:03:52;7.33;;;6.63;;
22826;SDS011;11580;52.562;13.418;2022-10-13T05:06:23;7.20;;;6.57;;
22826;SDS011;11580;52.562;13.418;2022-10-13T05:08:57;7.33;;;5.80;;
22826;SDS011;11580;52.562;13.418;2022-10-13T05:11:25;9.57;;;6.40;;
22826;SDS011;11580;52.562;13.418;2022-10-13T05:13:56;7.90;;;6.40;;
22826;SDS011;11580;52.562;13.418;2022-10-13T05:16:25;6.73;;;6.10;;
22826;SDS011;11580;52.562;13.418;2022-10-13T05:18:52;10.77;;;7.00;;
22826;SDS011;11580;52.562;13.418;2022-10-13T05:21:21;7.40;;;6.70;;
22826;SDS011;11580;52.562;13.418;2022-10-13T05:23:51;7.23;;;6.63;;
22826;SDS011;11580;52.562;13.418;2022-10-13T05:26:22;7.60;;;6.83;;
22826;SDS011;11580;52.562;13.418;2022-10-13T05:28:53;10.33;;;6.57;;
22826;SDS011;11580;52.562;13.418;2022-10-13T05:31:24;7.70;;;6.90;;
22826;SDS011;11580;52.562;13.418;2022-10-13T05:33:54;7.80;;;7.00;;
22826;SDS011;11580;52.562;13.418;2022-10-13T05:36:25;8.00;;;7.23;;
22826;SDS011;11580;52.562;13.418;2022-10-13T05:38:55;7.00;;;6.40;;
22826;SDS011;11580;52.562;13.418;2022-10-13T05:41:26;7.33;;;6.53;;
22826;SDS011;11580;52.562;13.418;2022-10-13T05:43:55;7.20;;;6.60;;
22826;SDS011;11580;52.562;13.418;2022-10-13T05:46:25;7.50;;;6.80;;
22826;SDS011;11580;52.562;13.418;2022-10-13T05:48:53;8.30;;;7.50;;
22826;SDS011;11580;52.562;13.418;2022-10-13T05:51:23;8.10;;;7.27;;
22826;SDS011;11580;52.562;13.418;2022-10-13T05:53:57;7.70;;;6.90;;
22826;SDS011;11580;52.562;13.418;2022-10-13T05:56:31;8.17;;;7.47;;
22826;SDS011;11580;52.562;13.418;2022-10-13T05:59:05;7.20;;;6.50;;
22826;SDS011;11580;52.562;13.418;2022-10-13T06:01:38;9.70;;;7.83;;
22826;SDS011;11580;52.562;13.418;2022-10-13T06:04:10;8.50;;;7.60;;
22826;SDS011;11580;52.562;13.418;2022-10-13T06:06:43;9.20;;;6.80;;
22826;SDS011;11580;52.562;13.418;2022-10-13T06:09:12;7.30;;;6.63;;
22826;SDS011;11580;52.562;13.418;2022-10-13T06:11:41;9.23;;;7.73;;
22826;SDS011;11580;52.562;13.418;2022-10-13T06:14:08;9.40;;;7.77;;
22826;SDS011;11580;52.562;13.418;2022-10-13T06:16:36;8.17;;;7.17;;
22826;SDS011;11580;52.562;13.418;2022-10-13T06:19:03;10.23;;;7.53;;
22826;SDS011;11580;52.562;13.418;2022-10-13T06:21:32;8.37;;;7.30;;
22826;SDS011;11580;52.562;13.418;2022-10-13T06:24:00;7.90;;;7.10;;
22826;SDS011;11580;52.562;13.418;2022-10-13T06:26:28;7.90;;;7.20;;
22826;SDS011;11580;52.562;13.418;2022-10-13T06:28:56;8.67;;;7.87;;
22826;SDS011;11580;52.562;13.418;2022-10-13T06:31:24;8.57;;;7.83;;
22826;SDS011;11580;52.562;13.418;2022-10-13T06:33:51;10.07;;;8.53;;
22826;SDS011;11580;52.562;13.418;2022-10-13T06:36:19;11.50;;;8.30;;
22826;SDS011;11580;52.562;13.418;2022-10-13T06:38:46;13.10;;;9.00;;
22826;SDS011;11580;52.562;13.418;2022-10-13T06:41:15;8.53;;;7.70;;
22826;SDS011;11580;52.562;13.418;2022-10-13T06:43:43;8.30;;;7.17;;
22826;SDS011;11580;52.562;13.418;2022-10-13T06:46:11;8.93;;;7.90;;
22826;SDS011;11580;52.562;13.418;2022-10-13T06:48:39;8.10;;;7.33;;
22826;SDS011;11580;52.562;13.418;2022-10-13T06:51:10;10.13;;;7.90;;
22826;SDS011;11580;52.562;13.418;2022-10-13T06:53:38;11.03;;;9.37;;
22826;SDS011;11580;52.562;13.418;2022-10-13T06:56:05;9.13;;;7.43;;
22826;SDS011;11580;52.562;13.418;2022-10-13T06:58:33;8.97;;;8.17;;
22826;SDS011;11580;52.562;13.418;2022-10-13T07:01:02;10.43;;;7.97;;
22826;SDS011;11580;52.562;13.418;2022-10-13T07:03:31;8.57;;;7.53;;
22826;SDS011;11580;52.562;13.418;2022-10-13T07:05:59;8.80;;;7.90;;
22826;SDS011;11580;52.562;13.418;2022-10-13T07:08:27;10.37;;;8.50;;
22826;SDS011;11580;52.562;13.418;2022-10-13T07:10:55;8.43;;;7.70;;
22826;SDS011;11580;52.562;13.418;2022-10-13T07:13:22;9.80;;;8.70;;
22826;SDS011;11580;52.562;13.418;2022-10-13T07:15:50;9.73;;;8.50;;
22826;SDS011;11580;52.562;13.418;2022-10-13T07:18:17;10.27;;;8.50;;
22826;SDS011;11580;52.562;13.418;2022-10-13T07:20:46;9.40;;;8.50;;
22826;SDS011;11580;52.562;13.418;2022-10-13T07:23:13;11.37;;;8.70;;
22826;SDS011;11580;52.562;13.418;2022-10-13T07:25:40;9.50;;;8.60;;
22826;SDS011;11580;52.562;13.418;2022-10-13T07:28:07;9.50;;;8.60;;
22826;SDS011;11580;52.562;13.418;2022-10-13T07:30:34;10.63;;;8.87;;
22826;SDS011;11580;52.562;13.418;2022-10-13T07:33:03;10.30;;;8.73;;
22826;SDS011;11580;52.562;13.418;2022-10-13T07:35:31;10.50;;;9.50;;
22826;SDS011;11580;52.562;13.418;2022-10-13T07:38:00;12.53;;;9.53;;
22826;SDS011;11580;52.562;13.418;2022-10-13T07:40:27;12.43;;;9.53;;
22826;SDS011;11580;52.562;13.418;2022-10-13T07:42:54;10.50;;;9.50;;
22826;SDS011;11580;52.562;13.418;2022-10-13T07:45:22;10.33;;;9.40;;
22826;SDS011;11580;52.562;13.418;2022-10-13T07:47:49;11.27;;;10.20;;
22826;SDS011;11580;52.562;13.418;2022-10-13T07:50:16;10.90;;;10.00;;
22826;SDS011;11580;52.562;13.418;2022-10-13T07:52:44;12.23;;;10.97;;
22826;SDS011;11580;52.562;13.418;2022-10-13T07:55:12;12.43;;;10.83;;
22826;SDS011;11580;52.562;13.418;2022-10-13T07:57:39;10.37;;;9.47;;
22826;SDS011;11580;52.562;13.418;2022-10-13T08:00:07;12.97;;;10.37;;
22826;SDS011;11580;52.562;13.418;2022-10-13T08:02:39;11.23;;;10.13;;
22826;SDS011;11580;52.562;13.418;2022-10-13T08:05:06;11.43;;;10.33;;
22826;SDS011;11580;52.562;13.418;2022-10-13T08:07:34;12.10;;;10.93;;
22826;SDS011;11580;52.562;13.418;2022-10-13T08:10:03;11.90;;;10.67;;
22826;SDS011;11580;52.562;13.418;2022-10-13T08:15:04;12.43;;;11.33;;
22826;SDS011;11580;52.562;13.418;2022-10-13T08:17:33;11.47;;;10.37;;
22826;SDS011;11580;52.562;13.418;2022-10-13T08:20:01;13.60;;;12.50;;
22826;SDS011;11580;52.562;13.418;2022-10-13T08:22:29;12.40;;;11.30;;
22826;SDS011;11580;52.562;13.418;2022-10-13T08:24:58;11.80;;;10.60;;
22826;SDS011;11580;52.562;13.418;2022-10-13T08:27:26;11.70;;;10.53;;
22826;SDS011;11580;52.562;13.418;2022-10-13T08:29:56;13.40;;;12.13;;
22826;SDS011;11580;52.562;13.418;2022-10-13T08:32:23;12.03;;;10.73;;
22826;SDS011;11580;52.562;13.418;2022-10-13T08:34:51;13.23;;;12.03;;
22826;SDS011;11580;52.562;13.418;2022-10-13T08:37:18;13.57;;;12.17;;
22826;SDS011;11580;52.562;13.418;2022-10-13T08:39:46;14.40;;;11.67;;
22826;SDS011;11580;52.562;13.418;2022-10-13T08:42:14;15.27;;;11.90;;
22826;SDS011;11580;52.562;13.418;2022-10-13T08:44:45;13.13;;;11.83;;
22826;SDS011;11580;52.562;13.418;2022-10-13T08:47:23;15.57;;;12.20;;
22826;SDS011;11580;52.562;13.418;2022-10-13T08:50:03;12.60;;;11.47;;
22826;SDS011;11580;52.562;13.418;2022-10-13T08:52:42;12.37;;;11.27;;
22826;SDS011;11580;52.562;13.418;2022-10-13T08:55:20;11.83;;;10.63;;
22826;SDS011;11580;52.562;13.418;2022-10-13T08:57:53;12.87;;;11.77;;
22826;SDS011;11580;52.562;13.418;2022-10-13T09:00:24;12.57;;;11.37;;
22826;SDS011;11580;52.562;13.418;2022-10-13T09:02:53;12.70;;;11.50;;
22826;SDS011;11580;52.562;13.418;2022-10-13T09:05:42;15.60;;;13.03;;
22826;SDS011;11580;52.562;13.418;2022-10-13T09:08:23;11.87;;;10.87;;
22826;SDS011;11580;52.562;13.418;2022-10-13T09:10:56;12.97;;;11.77;;
22826;SDS011;11580;52.562;13.418;2022-10-13T09:13:24;13.90;;;11.80;;
22826;SDS011;11580;52.562;13.418;2022-10-13T09:15:52;13.03;;;11.93;;
22826;SDS011;11580;52.562;13.418;2022-10-13T09:18:21;12.80;;;11.53;;
22826;SDS011;11580;52.562;13.418;2022-10-13T09:21:10;11.83;;;10.83;;
22826;SDS011;11580;52.562;13.418;2022-10-13T09:23:48;12.20;;;10.93;;
22826;SDS011;11580;52.562;13.418;2022-10-13T09:26:18;12.03;;;10.93;;
22826;SDS011;11580;52.562;13.418;2022-10-13T09:28:48;13.37;;;11.97;;
22826;SDS011;11580;52.562;13.418;2022-10-13T09:31:18;12.23;;;11.10;;
22826;SDS011;11580;52.562;13.418;2022-10-13T09:33:57;14.40;;;13.00;;
22826;SDS011;11580;52.562;13.418;2022-10-13T09:36:26;12.80;;;11.70;;
22826;SDS011;11580;52.562;13.418;2022-10-13T09:39:05;11.63;;;10.53;;
22826;SDS011;11580;52.562;13.418;2022-10-13T09:41:38;12.70;;;11.60;;
22826;SDS011;11580;52.562;13.418;2022-10-13T09:44:09;12.40;;;11.30;;
22826;SDS011;11580;52.562;13.418;2022-10-13T09:46:45;12.20;;;11.20;;
22826;SDS011;11580;52.562;13.418;2022-10-13T09:49:29;12.17;;;11.13;;
22826;SDS011;11580;52.562;13.418;2022-10-13T09:52:04;12.60;;;11.50;;
22826;SDS011;11580;52.562;13.418;2022-10-13T09:54:43;13.27;;;11.97;;
22826;SDS011;11580;52.562;13.418;2022-10-13T09:57:17;12.40;;;11.30;;
22826;SDS011;11580;52.562;13.418;2022-10-13T09:59:57;12.87;;;11.67;;
22826;SDS011;11580;52.562;13.418;2022-10-13T10:02:40;12.57;;;11.67;;
22826;SDS011;11580;52.562;13.418;2022-10-13T10:05:20;12.97;;;11.87;;
22826;SDS011;11580;52.562;13.418;2022-10-13T10:07:55;12.50;;;11.40;;
22826;SDS011;11580;52.562;13.418;2022-10-13T10:10:31;13.47;;;12.20;;
22826;SDS011;11580;52.562;13.418;2022-10-13T10:13:07;12.90;;;11.80;;
22826;SDS011;11580;52.562;13.418;2022-10-13T10:15:41;13.37;;;12.20;;
22826;SDS011;11580;52.562;13.418;2022-10-13T10:18:16;14.20;;;12.80;;
22826;SDS011;11580;52.562;13.418;2022-10-13T10:21:01;12.80;;;11.67;;
22826;SDS011;11580;52.562;13.418;2022-10-13T10:23:40;12.53;;;11.53;;
22826;SDS011;11580;52.562;13.418;2022-10-13T10:26:15;14.47;;;12.97;;
22826;SDS011;11580;52.562;13.418;2022-10-13T10:28:55;14.30;;;12.77;;
22826;SDS011;11580;52.562;13.418;2022-10-13T10:31:49;13.00;;;11.90;;
22826;SDS011;11580;52.562;13.418;2022-10-13T10:34:41;13.50;;;12.20;;
22826;SDS011;11580;52.562;13.418;2022-10-13T10:37:19;13.57;;;12.40;;
22826;SDS011;11580;52.562;13.418;2022-10-13T10:40:14;13.60;;;12.30;;
22826;SDS011;11580;52.562;13.418;2022-10-13T10:43:02;12.77;;;11.67;;
22826;SDS011;11580;52.562;13.418;2022-10-13T10:46:12;14.10;;;12.73;;
22826;SDS011;11580;52.562;13.418;2022-10-13T10:48:45;15.27;;;13.73;;
22826;SDS011;11580;52.562;13.418;2022-10-13T10:51:15;15.33;;;13.93;;
22826;SDS011;11580;52.562;13.418;2022-10-13T10:53:47;12.70;;;11.60;;
22826;SDS011;11580;52.562;13.418;2022-10-13T10:56:26;14.00;;;12.50;;
22826;SDS011;11580;52.562;13.418;2022-10-13T10:59:09;14.10;;;12.80;;
22826;SDS011;11580;52.562;13.418;2022-10-13T11:01:55;14.37;;;13.27;;
22826;SDS011;11580;52.562;13.418;2022-10-13T11:04:38;14.20;;;13.00;;
22826;SDS011;11580;52.562;13.418;2022-10-13T11:07:09;15.33;;;14.13;;
22826;SDS011;11580;52.562;13.418;2022-10-13T11:15:52;14.40;;;13.20;;
22826;SDS011;11580;52.562;13.418;2022-10-13T11:24:58;12.83;;;11.73;;
22826;SDS011;11580;52.562;13.418;2022-10-13T11:28:00;12.93;;;11.80;;
22826;SDS011;11580;52.562;13.418;2022-10-13T11:31:23;14.40;;;12.90;;
22826;SDS011;11580;52.562;13.418;2022-10-13T11:36:58;13.37;;;12.27;;
22826;SDS011;11580;52.562;13.418;2022-10-13T11:42:53;13.13;;;11.90;;
22826;SDS011;11580;52.562;13.418;2022-10-13T11:52:02;12.23;;;11.17;;
22826;SDS011;11580;52.562;13.418;2022-10-13T11:54:46;11.53;;;10.47;;
22826;SDS011;11580;52.562;13.418;2022-10-13T11:57:19;12.83;;;11.63;;
22826;SDS011;11580;52.562;13.418;2022-10-13T11:59:49;12.50;;;11.33;;
22826;SDS011;11580;52.562;13.418;2022-10-13T12:02:26;13.03;;;12.00;;
22826;SDS011;11580;52.562;13.418;2022-10-13T12:05:01;11.97;;;10.90;;
22826;SDS011;11580;52.562;13.418;2022-10-13T12:07:45;11.50;;;10.30;;
22826;SDS011;11580;52.562;13.418;2022-10-13T12:10:16;12.10;;;10.90;;
22826;SDS011;11580;52.562;13.418;2022-10-13T12:12:49;11.47;;;10.47;;
22826;SDS011;11580;52.562;13.418;2022-10-13T12:15:25;11.13;;;9.97;;
22826;SDS011;11580;52.562;13.418;2022-10-13T12:17:59;10.63;;;9.73;;
22826;SDS011;11580;52.562;13.418;2022-10-13T12:20:28;11.43;;;10.47;;
22826;SDS011;11580;52.562;13.418;2022-10-13T12:22:57;10.30;;;9.37;;
22826;SDS011;11580;52.562;13.418;2022-10-13T12:25:26;9.57;;;8.73;;
22826;SDS011;11580;52.562;13.418;2022-10-13T12:27:58;9.10;;;8.13;;
22826;SDS011;11580;52.562;13.418;2022-10-13T12:30:26;8.90;;;8.10;;
22826;SDS011;11580;52.562;13.418;2022-10-13T12:32:57;9.57;;;8.50;;
22826;SDS011;11580;52.562;13.418;2022-10-13T12:35:26;9.37;;;8.57;;
22826;SDS011;11580;52.562;13.418;2022-10-13T12:37:57;8.20;;;7.47;;
22826;SDS011;11580;52.562;13.418;2022-10-13T12:40:33;8.57;;;7.80;;
22826;SDS011;11580;52.562;13.418;2022-10-13T12:43:02;9.30;;;8.07;;
22826;SDS011;11580;52.562;13.418;2022-10-13T12:45:30;9.00;;;8.20;;
22826;SDS011;11580;52.562;13.418;2022-10-13T12:48:01;8.60;;;7.90;;
22826;SDS011;11580;52.562;13.418;2022-10-13T12:50:33;8.53;;;7.70;;
22826;SDS011;11580;52.562;13.418;2022-10-13T12:55:54;7.30;;;6.70;;
22826;SDS011;11580;52.562;13.418;2022-10-13T12:58:26;8.00;;;7.20;;
22826;SDS011;11580;52.562;13.418;2022-10-13T13:00:57;7.07;;;6.57;;
22826;SDS011;11580;52.562;13.418;2022-10-13T13:03:35;7.43;;;6.67;;
22826;SDS011;11580;52.562;13.418;2022-10-13T13:06:08;9.17;;;8.27;;
22826;SDS011;11580;52.562;13.418;2022-10-13T13:09:04;9.40;;;8.50;;
22826;SDS011;11580;52.562;13.418;2022-10-13T13:14:49;7.83;;;7.10;;
22826;SDS011;11580;52.562;13.418;2022-10-13T13:17:23;8.67;;;7.80;;
22826;SDS011;11580;52.562;13.418;2022-10-13T13:19:55;8.07;;;7.37;;
22826;SDS011;11580;52.562;13.418;2022-10-13T13:22:23;7.47;;;6.77;;
22826;SDS011;11580;52.562;13.418;2022-10-13T13:24:51;8.60;;;7.17;;
22826;SDS011;11580;52.562;13.418;2022-10-13T13:27:22;8.80;;;7.97;;
22826;SDS011;11580;52.562;13.418;2022-10-13T13:29:52;10.43;;;6.90;;
22826;SDS011;11580;52.562;13.418;2022-10-13T13:32:21;7.27;;;6.67;;
22826;SDS011;11580;52.562;13.418;2022-10-13T13:34:52;7.20;;;6.70;;
22826;SDS011;11580;52.562;13.418;2022-10-13T13:37:24;7.40;;;6.80;;
22826;SDS011;11580;52.562;13.418;2022-10-13T13:39:55;7.47;;;6.90;;
22826;SDS011;11580;52.562;13.418;2022-10-13T13:42:23;9.23;;;7.73;;
22826;SDS011;11580;52.562;13.418;2022-10-13T13:44:50;7.90;;;7.10;;
22826;SDS011;11580;52.562;13.418;2022-10-13T13:47:18;7.37;;;6.63;;
22826;SDS011;11580;52.562;13.418;2022-10-13T13:49:48;8.23;;;7.30;;
22826;SDS011;11580;52.562;13.418;2022-10-13T13:52:18;7.30;;;6.80;;
22826;SDS011;11580;52.562;13.418;2022-10-13T13:54:48;8.50;;;6.70;;
22826;SDS011;11580;52.562;13.418;2022-10-13T13:57:16;7.10;;;6.50;;
22826;SDS011;11580;52.562;13.418;2022-10-13T13:59:44;7.40;;;6.70;;
22826;SDS011;11580;52.562;13.418;2022-10-13T14:02:12;7.73;;;7.00;;
22826;SDS011;11580;52.562;13.418;2022-10-13T14:04:42;7.90;;;7.03;;
22826;SDS011;11580;52.562;13.418;2022-10-13T14:07:09;8.03;;;7.27;;
22826;SDS011;11580;52.562;13.418;2022-10-13T14:09:37;7.83;;;7.10;;
22826;SDS011;11580;52.562;13.418;2022-10-13T14:12:08;7.40;;;6.77;;
22826;SDS011;11580;52.562;13.418;2022-10-13T14:14:35;7.30;;;6.57;;
22826;SDS011;11580;52.562;13.418;2022-10-13T14:17:04;7.30;;;6.57;;
22826;SDS011;11580;52.562;13.418;2022-10-13T14:19:31;8.03;;;7.30;;
22826;SDS011;11580;52.562;13.418;2022-10-13T14:21:59;7.20;;;6.60;;
22826;SDS011;11580;52.562;13.418;2022-10-13T14:24:26;8.47;;;7.10;;
22826;SDS011;11580;52.562;13.418;2022-10-13T14:26:53;7.30;;;6.70;;
22826;SDS011;11580;52.562;13.418;2022-10-13T14:29:22;7.30;;;6.70;;
22826;SDS011;11580;52.562;13.418;2022-10-13T14:31:50;7.73;;;7.10;;
22826;SDS011;11580;52.562;13.418;2022-10-13T14:34:17;7.87;;;7.17;;
22826;SDS011;11580;52.562;13.418;2022-10-13T14:36:45;8.07;;;7.47;;
22826;SDS011;11580;52.562;13.418;2022-10-13T14:39:14;8.77;;;8.00;;
22826;SDS011;11580;52.562;13.418;2022-10-13T14:41:41;7.10;;;6.60;;
22826;SDS011;11580;52.562;13.418;2022-10-13T14:44:08;8.33;;;6.87;;
22826;SDS011;11580;52.562;13.418;2022-10-13T14:46:43;7.77;;;7.07;;
22826;SDS011;11580;52.562;13.418;2022-10-13T14:49:11;8.80;;;7.60;;
22826;SDS011;11580;52.562;13.418;2022-10-13T14:51:41;7.87;;;7.17;;
22826;SDS011;11580;52.562;13.418;2022-10-13T14:54:11;8.53;;;7.80;;
22826;SDS011;11580;52.562;13.418;2022-10-13T14:56:38;7.70;;;7.10;;
22826;SDS011;11580;52.562;13.418;2022-10-13T14:59:06;8.23;;;7.30;;
22826;SDS011;11580;52.562;13.418;2022-10-13T15:01:35;8.17;;;7.47;;
22826;SDS011;11580;52.562;13.418;2022-10-13T15:04:04;10.10;;;8.00;;
22826;SDS011;11580;52.562;13.418;2022-10-13T15:06:31;9.03;;;8.17;;
22826;SDS011;11580;52.562;13.418;2022-10-13T15:08:59;8.73;;;7.93;;
22826;SDS011;11580;52.562;13.418;2022-10-13T15:11:26;9.17;;;8.37;;
22826;SDS011;11580;52.562;13.418;2022-10-13T15:13:54;9.57;;;8.67;;
22826;SDS011;11580;52.562;13.418;2022-10-13T15:16:21;9.03;;;8.13;;
22826;SDS011;11580;52.562;13.418;2022-10-13T15:18:52;8.20;;;7.50;;
22826;SDS011;11580;52.562;13.418;2022-10-13T15:21:21;9.20;;;8.40;;
22826;SDS011;11580;52.562;13.418;2022-10-13T15:23:49;8.57;;;7.73;;
22826;SDS011;11580;52.562;13.418;2022-10-13T15:26:17;8.97;;;8.20;;
22826;SDS011;11580;52.562;13.418;2022-10-13T15:28:45;9.20;;;8.40;;
22826;SDS011;11580;52.562;13.418;2022-10-13T15:31:15;9.47;;;8.60;;